Time;durP1;ratioP1;P1;durP2;ratioP2;P2;SDS_P1;SDS_P2;PMS_P1;PMS_P2;Temp;Humidity;BMP_temperature;BMP_pressure;BME280_temperature;BME280_humidity;BME280_pressure;Samples;Min_cycle;Max_cycle;Signal;HPM_P1;HPM_P2
2024/04/13 00:01:20;;;;;;;5.20;3.67;;;;;;;;;;6295715;26;20024;-65
2024/04/13 00:04:11;;;;;;;4.55;3.17;;;;;;;;;;6252286;26;20070;-65
2024/04/13 00:07:03;;;;;;;3.10;2.35;;;;;;;;;;6268335;26;20012;-65
2024/04/13 00:09:54;;;;;;;6.55;2.95;;;;;;;;;;6269156;26;20004;-65
2024/04/13 00:12:44;;;;;;;11.65;3.28;;;;;;;;;;6268364;26;20004;-65
2024/04/13 00:15:35;;;;;;;10.05;3.70;;;;;;;;;;6268053;26;20044;-65
2024/04/13 00:18:26;;;;;;;3.33;2.97;;;;;;;;;;6268543;26;20005;-65
2024/04/13 00:21:17;;;;;;;3.70;2.80;;;;;;;;;;6268133;26;20011;-65
2024/04/13 00:24:11;;;;;;;5.03;3.15;;;;;;;;;;6268082;26;20011;-65
2024/04/13 00:27:02;;;;;;;4.20;3.28;;;;;;;;;;6268257;26;20004;-65
2024/04/13 00:29:53;;;;;;;6.95;3.42;;;;;;;;;;6268783;26;20004;-65
2024/04/13 00:32:44;;;;;;;3.55;2.22;;;;;;;;;;6267826;26;20031;-65
2024/04/13 00:35:35;;;;;;;3.40;2.53;;;;;;;;;;6268006;26;20015;-65
2024/04/13 00:38:27;;;;;;;5.95;2.88;;;;;;;;;;6268078;26;20373;-65
2024/04/13 00:41:19;;;;;;;3.42;3.13;;;;;;;;;;6237093;26;20127;-65
2024/04/13 00:44:10;;;;;;;4.30;2.65;;;;;;;;;;6267949;26;20004;-65
2024/04/13 00:47:09;;;;;;;2.88;2.67;;;;;;;;;;6268016;26;20073;-65
2024/04/13 00:50:11;;;;;;;7.05;3.13;;;;;;;;;;6266971;26;20437;-65
2024/04/13 00:53:03;;;;;;;3.95;2.80;;;;;;;;;;6267608;26;20081;-65
2024/04/13 00:55:57;;;;;;;3.75;2.40;;;;;;;;;;6267899;26;20004;-65
2024/04/13 00:58:49;;;;;;;5.65;3.50;;;;;;;;;;6267806;26;20455;-65
2024/04/13 01:01:39;;;;;;;2.67;2.00;;;;;;;;;;6267437;26;20036;-65
2024/04/13 01:04:32;;;;;;;5.22;2.45;;;;;;;;;;6267454;26;20422;-65
2024/04/13 01:07:26;;;;;;;2.50;2.30;;;;;;;;;;6267314;26;20404;-65
2024/04/13 01:10:17;;;;;;;4.05;2.25;;;;;;;;;;6236382;26;20338;-65
2024/04/13 01:13:11;;;;;;;5.05;2.15;;;;;;;;;;6267322;26;20004;-65
2024/04/13 01:16:03;;;;;;;2.75;2.22;;;;;;;;;;6266235;26;20019;-65
2024/04/13 01:18:55;;;;;;;1.48;1.38;;;;;;;;;;6267602;26;20016;-65
2024/04/13 01:21:46;;;;;;;6.03;2.72;;;;;;;;;;6266528;26;20004;-65
2024/04/13 01:24:40;;;;;;;6.93;2.97;;;;;;;;;;6236804;26;20467;-65
2024/04/13 01:27:31;;;;;;;2.80;2.60;;;;;;;;;;6267088;26;20081;-65
2024/04/13 01:30:26;;;;;;;3.10;2.63;;;;;;;;;;6266882;26;20004;-65
2024/04/13 01:33:19;;;;;;;5.38;2.78;;;;;;;;;;6267012;26;20011;-65
2024/04/13 01:36:10;;;;;;;2.97;2.50;;;;;;;;;;6266831;26;20016;-65
2024/04/13 01:39:07;;;;;;;2.45;2.25;;;;;;;;;;6266968;26;20014;-66
2024/04/13 01:41:58;;;;;;;3.67;3.28;;;;;;;;;;6236920;26;20829;-65
2024/04/13 01:44:49;;;;;;;7.60;4.75;;;;;;;;;;6266810;26;20004;-65
2024/04/13 01:47:40;;;;;;;4.38;3.38;;;;;;;;;;6266483;26;20018;-65
2024/04/13 01:50:33;;;;;;;9.20;2.90;;;;;;;;;;6266623;26;20004;-65
2024/04/13 01:53:24;;;;;;;2.97;2.00;;;;;;;;;;6266371;26;20033;-65
2024/04/13 01:56:15;;;;;;;3.20;2.90;;;;;;;;;;6266482;26;20008;-65
2024/04/13 01:59:06;;;;;;;4.82;3.13;;;;;;;;;;6266474;26;20019;-65
2024/04/13 02:01:57;;;;;;;2.45;2.25;;;;;;;;;;6266737;26;20043;-65
2024/04/13 02:04:48;;;;;;;4.15;3.42;;;;;;;;;;6264528;26;20005;-65
2024/04/13 02:07:40;;;;;;;4.65;2.90;;;;;;;;;;6266042;26;20372;-65
2024/04/13 02:10:31;;;;;;;7.03;3.97;;;;;;;;;;6266248;26;20035;-65
2024/04/13 02:13:22;;;;;;;7.18;4.03;;;;;;;;;;6265958;26;20436;-65
2024/04/13 02:16:13;;;;;;;7.20;3.90;;;;;;;;;;6265743;26;20346;-65
2024/04/13 02:19:06;;;;;;;5.88;3.53;;;;;;;;;;6266000;26;20024;-65
2024/04/13 02:21:57;;;;;;;3.67;3.17;;;;;;;;;;6266395;26;20375;-65
2024/04/13 02:24:48;;;;;;;3.53;3.22;;;;;;;;;;6266164;26;20021;-65
2024/04/13 02:27:39;;;;;;;4.68;3.65;;;;;;;;;;6268141;26;20014;-65
2024/04/13 02:30:30;;;;;;;5.82;3.30;;;;;;;;;;6270243;26;20372;-65
2024/04/13 02:33:21;;;;;;;8.13;3.60;;;;;;;;;;6270223;26;20031;-65
2024/04/13 02:36:12;;;;;;;6.82;3.65;;;;;;;;;;6270089;26;20005;-65
2024/04/13 02:39:03;;;;;;;5.18;3.35;;;;;;;;;;6270093;26;20009;-66
2024/04/13 02:41:54;;;;;;;4.75;3.83;;;;;;;;;;6270453;26;20008;-65
2024/04/13 02:44:47;;;;;;;5.50;4.05;;;;;;;;;;6270133;26;20330;-65
2024/04/13 02:47:38;;;;;;;6.25;4.15;;;;;;;;;;6269726;26;20453;-65
2024/04/13 02:50:29;;;;;;;8.65;4.43;;;;;;;;;;6269759;26;20012;-65
2024/04/13 02:53:20;;;;;;;5.57;4.00;;;;;;;;;;6269603;26;20430;-65
2024/04/13 02:56:11;;;;;;;5.65;3.63;;;;;;;;;;6269867;26;20011;-65
2024/04/13 02:59:02;;;;;;;4.47;2.63;;;;;;;;;;6269728;26;20036;-65
2024/04/13 03:01:54;;;;;;;4.13;3.45;;;;;;;;;;6269989;26;20364;-65
2024/04/13 03:04:45;;;;;;;11.57;3.67;;;;;;;;;;6269546;26;20018;-65
2024/04/13 03:07:36;;;;;;;3.28;2.85;;;;;;;;;;6269669;26;20018;-65
2024/04/13 03:10:27;;;;;;;13.80;2.83;;;;;;;;;;6269333;26;20048;-65
2024/04/13 03:13:18;;;;;;;4.53;3.33;;;;;;;;;;6269496;26;20004;-65
2024/04/13 03:16:10;;;;;;;4.25;2.05;;;;;;;;;;6267512;26;20011;-66
2024/04/13 03:19:01;;;;;;;5.65;4.03;;;;;;;;;;6269387;26;20028;-66
2024/04/13 03:21:52;;;;;;;6.45;4.22;;;;;;;;;;6269360;26;20004;-65
2024/04/13 03:24:43;;;;;;;6.38;3.67;;;;;;;;;;6269315;26;20023;-65
2024/04/13 03:27:35;;;;;;;7.22;3.65;;;;;;;;;;6268974;26;20460;-65
2024/04/13 03:30:26;;;;;;;3.05;2.33;;;;;;;;;;6269074;26;20026;-65
2024/04/13 03:33:17;;;;;;;6.30;2.92;;;;;;;;;;6238620;26;20342;-65
2024/04/13 03:36:09;;;;;;;6.13;3.85;;;;;;;;;;6268927;26;20016;-65
2024/04/13 03:39:00;;;;;;;3.22;2.47;;;;;;;;;;6268790;26;20074;-65
2024/04/13 03:41:51;;;;;;;3.22;2.72;;;;;;;;;;6267516;26;20004;-65
2024/04/13 03:44:41;;;;;;;6.45;3.50;;;;;;;;;;6269036;26;20015;-65
2024/04/13 03:47:32;;;;;;;6.05;3.22;;;;;;;;;;6268747;26;20008;-65
2024/04/13 03:50:23;;;;;;;3.90;3.45;;;;;;;;;;6268902;26;20055;-65
2024/04/13 03:53:15;;;;;;;3.60;3.28;;;;;;;;;;6237923;26;20036;-65
2024/04/13 03:56:06;;;;;;;9.25;4.45;;;;;;;;;;6268706;26;20004;-65
2024/04/13 03:58:57;;;;;;;5.00;4.45;;;;;;;;;;6269133;26;20019;-65
2024/04/13 04:01:47;;;;;;;5.32;3.50;;;;;;;;;;6268141;26;20370;-65
2024/04/13 04:04:38;;;;;;;6.63;4.05;;;;;;;;;;6268637;26;20036;-65
2024/04/13 04:07:31;;;;;;;6.47;3.45;;;;;;;;;;6268309;26;20123;-65
2024/04/13 04:10:22;;;;;;;13.25;3.50;;;;;;;;;;6268488;26;20010;-65
2024/04/13 04:13:13;;;;;;;4.63;3.85;;;;;;;;;;6268528;26;20314;-65
2024/04/13 04:16:04;;;;;;;4.88;3.42;;;;;;;;;;6268376;26;20032;-66
2024/04/13 04:18:55;;;;;;;7.55;3.85;;;;;;;;;;6268638;26;20018;-65
2024/04/13 04:21:46;;;;;;;11.57;3.90;;;;;;;;;;6267875;26;20082;-65
2024/04/13 04:24:38;;;;;;;7.20;4.40;;;;;;;;;;6268236;26;20326;-65
2024/04/13 04:27:29;;;;;;;7.13;4.13;;;;;;;;;;6268218;26;20446;-65
2024/04/13 04:30:20;;;;;;;5.57;3.17;;;;;;;;;;6267954;26;20399;-65
2024/04/13 04:33:12;;;;;;;4.90;4.15;;;;;;;;;;6268050;26;20412;-65
2024/04/13 04:36:04;;;;;;;4.85;4.13;;;;;;;;;;6267807;26;20001;-65
2024/04/13 04:38:55;;;;;;;6.15;5.32;;;;;;;;;;6268116;26;20022;-65
2024/04/13 04:41:46;;;;;;;12.07;6.45;;;;;;;;;;6267907;26;20032;-65
2024/04/13 04:44:37;;;;;;;5.90;3.95;;;;;;;;;;6267859;26;20008;-65
2024/04/13 04:47:28;;;;;;;14.10;4.63;;;;;;;;;;6267735;26;20000;-65
2024/04/13 04:50:19;;;;;;;5.75;4.78;;;;;;;;;;6266180;26;20457;-65
2024/04/13 04:53:10;;;;;;;4.05;3.65;;;;;;;;;;6265935;26;20341;-65
2024/04/13 04:56:00;;;;;;;8.57;4.65;;;;;;;;;;6267613;26;20014;-66
2024/04/13 04:58:51;;;;;;;4.32;3.92;;;;;;;;;;6268295;26;20015;-66
2024/04/13 05:01:42;;;;;;;5.45;4.28;;;;;;;;;;6267428;26;20047;-65
2024/04/13 05:04:33;;;;;;;4.95;4.45;;;;;;;;;;6267570;26;20466;-65
2024/04/13 05:07:24;;;;;;;6.10;4.40;;;;;;;;;;6267531;26;20016;-66
2024/04/13 05:10:15;;;;;;;12.13;4.80;;;;;;;;;;6267438;26;20015;-65
2024/04/13 05:13:06;;;;;;;12.32;5.30;;;;;;;;;;6267311;26;20012;-66
2024/04/13 05:15:57;;;;;;;8.65;5.05;;;;;;;;;;6267736;26;20015;-65
2024/04/13 05:18:48;;;;;;;9.48;5.05;;;;;;;;;;6267420;26;20414;-65
2024/04/13 05:21:39;;;;;;;9.15;4.88;;;;;;;;;;6266803;26;20099;-66
2024/04/13 05:24:31;;;;;;;4.32;3.80;;;;;;;;;;6236673;26;20342;-66
2024/04/13 05:27:24;;;;;;;6.82;4.10;;;;;;;;;;6266823;26;20107;-66
2024/04/13 05:30:15;;;;;;;11.75;5.75;;;;;;;;;;6267000;26;20032;-66
2024/04/13 05:33:06;;;;;;;9.88;4.60;;;;;;;;;;6267110;26;20014;-66
2024/04/13 05:35:58;;;;;;;10.95;5.78;;;;;;;;;;6267525;26;20015;-66
2024/04/13 05:38:54;;;;;;;8.35;5.00;;;;;;;;;;6237882;26;20004;-66
2024/04/13 05:41:45;;;;;;;14.20;6.88;;;;;;;;;;6266971;26;20319;-66
2024/04/13 05:44:35;;;;;;;10.02;6.47;;;;;;;;;;6266860;26;20012;-66
2024/04/13 05:47:26;;;;;;;6.38;4.60;;;;;;;;;;6266843;26;20015;-66
2024/04/13 05:50:17;;;;;;;7.28;4.70;;;;;;;;;;6266685;26;20004;-66
2024/04/13 05:53:08;;;;;;;8.13;4.80;;;;;;;;;;6266780;26;20000;-66
2024/04/13 05:56:07;;;;;;;6.50;4.40;;;;;;;;;;6267352;26;20014;-66
2024/04/13 05:58:58;;;;;;;10.60;5.72;;;;;;;;;;6266847;26;20453;-67
2024/04/13 06:01:49;;;;;;;8.85;5.55;;;;;;;;;;6267683;26;20461;-67
2024/04/13 06:04:40;;;;;;;8.18;4.38;;;;;;;;;;6270670;26;20449;-65
2024/04/13 06:07:30;;;;;;;9.00;4.80;;;;;;;;;;6270583;26;20011;-65
2024/04/13 06:10:21;;;;;;;13.10;5.22;;;;;;;;;;6270650;26;20035;-64
2024/04/13 06:13:16;;;;;;;15.15;3.70;;;;;;;;;;6270842;26;20004;-65
2024/04/13 06:20:14;;;;;;;11.18;5.47;;;;;;;;;;6270539;26;20005;-67
2024/04/13 06:40:35;;;;;;;6.00;2.72;;;;;;;;;;6246062;26;20024;-67
2024/04/13 06:52:29;;;;;;;11.85;2.55;;;;;;;;;;6234853;26;20076;-69
2024/04/13 06:55:20;;;;;;;2.35;1.67;;;;;;;;;;6269691;26;20026;-66
2024/04/13 06:58:11;;;;;;;3.40;1.75;;;;;;;;;;6234171;26;20001;-64
2024/04/13 07:01:02;;;;;;;4.13;1.35;;;;;;;;;;6265148;26;20015;-64
2024/04/13 07:03:56;;;;;;;2.17;1.35;;;;;;;;;;6271309;26;20000;-64
2024/04/13 07:06:47;;;;;;;2.95;1.20;;;;;;;;;;6269625;26;20016;-63
2024/04/13 07:09:38;;;;;;;3.58;1.73;;;;;;;;;;6250351;26;20023;-64
2024/04/13 07:12:29;;;;;;;1.52;1.15;;;;;;;;;;6229372;26;20023;-66
2024/04/13 07:15:20;;;;;;;2.20;1.33;;;;;;;;;;6229200;26;21021;-66
2024/04/13 07:18:11;;;;;;;1.58;1.10;;;;;;;;;;6264836;26;20541;-66
2024/04/13 07:21:02;;;;;;;4.30;2.55;;;;;;;;;;6237299;26;20346;-67
2024/04/13 07:23:53;;;;;;;2.67;1.48;;;;;;;;;;6241775;26;20407;-64
2024/04/13 07:26:44;;;;;;;3.15;2.13;;;;;;;;;;6267013;26;20018;-64
2024/04/13 07:29:35;;;;;;;7.30;2.08;;;;;;;;;;6252074;26;20019;-64
2024/04/13 07:32:26;;;;;;;12.80;2.13;;;;;;;;;;6251636;26;20004;-64
2024/04/13 07:35:17;;;;;;;8.57;2.17;;;;;;;;;;6270128;26;20363;-64
2024/04/13 07:38:08;;;;;;;3.92;1.45;;;;;;;;;;6269867;26;20004;-64
2024/04/13 07:40:58;;;;;;;4.43;2.47;;;;;;;;;;6269757;26;20063;-64
2024/04/13 07:43:49;;;;;;;11.90;2.75;;;;;;;;;;6270147;26;20101;-64
2024/04/13 07:46:40;;;;;;;5.97;2.85;;;;;;;;;;6242501;26;20022;-64
2024/04/13 07:49:31;;;;;;;1.50;1.40;;;;;;;;;;6269676;26;20032;-64
2024/04/13 07:52:22;;;;;;;2.75;2.45;;;;;;;;;;6239104;26;20008;-64
2024/04/13 07:55:13;;;;;;;5.18;2.17;;;;;;;;;;6240700;26;20960;-64
2024/04/13 07:58:04;;;;;;;3.42;1.92;;;;;;;;;;6254049;26;20410;-64
2024/04/13 08:00:56;;;;;;;3.17;2.00;;;;;;;;;;6236468;26;20326;-64
2024/04/13 08:03:47;;;;;;;10.68;3.70;;;;;;;;;;6229312;26;20013;-65
2024/04/13 08:06:39;;;;;;;5.82;2.95;;;;;;;;;;6256420;26;20335;-64
2024/04/13 08:09:30;;;;;;;5.88;2.30;;;;;;;;;;6230816;26;20346;-65
2024/04/13 08:12:21;;;;;;;4.50;1.95;;;;;;;;;;6268986;26;20048;-64
2024/04/13 08:15:12;;;;;;;2.65;1.77;;;;;;;;;;6269935;26;20398;-64
2024/04/13 08:18:03;;;;;;;2.05;1.67;;;;;;;;;;6267759;26;20008;-65
2024/04/13 08:20:56;;;;;;;1.92;1.33;;;;;;;;;;6240178;26;20004;-65
2024/04/13 08:23:47;;;;;;;3.20;1.73;;;;;;;;;;6250407;26;20383;-64
2024/04/13 08:26:38;;;;;;;1.60;1.45;;;;;;;;;;6244296;26;20045;-65
2024/04/13 08:29:29;;;;;;;3.13;1.90;;;;;;;;;;6229275;26;20120;-64
2024/04/13 08:32:20;;;;;;;3.08;1.77;;;;;;;;;;6227115;26;20019;-64
2024/04/13 08:35:11;;;;;;;1.25;1.15;;;;;;;;;;6228696;26;20474;-65
2024/04/13 08:38:02;;;;;;;4.93;1.50;;;;;;;;;;6228307;26;20037;-65
2024/04/13 08:40:54;;;;;;;1.80;1.60;;;;;;;;;;6216737;26;20044;-64
2024/04/13 08:43:45;;;;;;;6.35;1.45;;;;;;;;;;6228780;26;20415;-64
2024/04/13 08:46:37;;;;;;;4.60;1.70;;;;;;;;;;6227837;26;20005;-64
2024/04/13 08:49:39;;;;;;;4.07;1.30;;;;;;;;;;6198534;26;20015;-64
2024/04/13 08:52:32;;;;;;;2.13;1.40;;;;;;;;;;6209436;26;20004;-64
2024/04/13 08:55:23;;;;;;;1.98;1.27;;;;;;;;;;6269032;26;20401;-64
2024/04/13 08:58:17;;;;;;;4.80;1.90;;;;;;;;;;6200875;26;20041;-64
2024/04/13 09:01:13;;;;;;;1.77;1.38;;;;;;;;;;6202876;26;20004;-64
2024/04/13 09:04:05;;;;;;;1.42;1.13;;;;;;;;;;6268815;26;20464;-65
2024/04/13 09:06:57;;;;;;;2.05;1.52;;;;;;;;;;6269249;26;20014;-64
2024/04/13 09:09:49;;;;;;;4.03;1.90;;;;;;;;;;6269003;26;20008;-64
2024/04/13 09:12:40;;;;;;;5.72;1.58;;;;;;;;;;6240401;26;20019;-64
2024/04/13 09:15:31;;;;;;;2.30;1.15;;;;;;;;;;6228706;26;20013;-64
2024/04/13 09:18:22;;;;;;;2.13;1.15;;;;;;;;;;6227451;26;20013;-64
2024/04/13 09:21:13;;;;;;;8.88;1.70;;;;;;;;;;6227113;26;20087;-64
2024/04/13 09:24:07;;;;;;;1.95;1.33;;;;;;;;;;6227783;26;20016;-64
2024/04/13 09:26:57;;;;;;;1.17;0.90;;;;;;;;;;6227549;26;20012;-64
2024/04/13 09:29:49;;;;;;;5.70;1.20;;;;;;;;;;6227715;26;20033;-64
2024/04/13 09:32:40;;;;;;;1.70;1.23;;;;;;;;;;6226709;26;20013;-63
2024/04/13 09:35:32;;;;;;;3.22;1.23;;;;;;;;;;6227963;26;20425;-64
2024/04/13 09:38:23;;;;;;;3.58;1.20;;;;;;;;;;6229708;26;20004;-64
2024/04/13 09:41:13;;;;;;;1.60;1.35;;;;;;;;;;6249113;26;20004;-64
2024/04/13 09:44:04;;;;;;;2.33;1.17;;;;;;;;;;6272123;26;20288;-65
2024/04/13 09:46:56;;;;;;;0.73;0.73;;;;;;;;;;6242258;26;20015;-64
2024/04/13 09:49:50;;;;;;;1.15;1.05;;;;;;;;;;6231097;26;20362;-64
2024/04/13 09:52:42;;;;;;;3.47;1.52;;;;;;;;;;6230006;26;20040;-64
2024/04/13 09:55:34;;;;;;;1.10;1.05;;;;;;;;;;6200382;26;20446;-64
2024/04/13 09:58:25;;;;;;;1.58;0.93;;;;;;;;;;6230492;26;20462;-63
2024/04/13 10:01:16;;;;;;;1.50;1.02;;;;;;;;;;6239453;26;20019;-64
2024/04/13 10:04:07;;;;;;;1.50;0.88;;;;;;;;;;6268593;26;20035;-64
2024/04/13 10:06:59;;;;;;;2.30;1.38;;;;;;;;;;6231228;26;20004;-64
2024/04/13 10:10:00;;;;;;;1.10;0.82;;;;;;;;;;6201939;26;20013;-64
2024/04/13 10:12:54;;;;;;;2.78;1.17;;;;;;;;;;6230434;26;20004;-65
2024/04/13 10:15:48;;;;;;;2.33;1.05;;;;;;;;;;6271197;26;20457;-64
2024/04/13 10:18:39;;;;;;;2.83;1.50;;;;;;;;;;6235357;26;20012;-64
2024/04/13 10:21:34;;;;;;;4.80;1.20;;;;;;;;;;6200232;26;20021;-67
2024/04/13 10:24:29;;;;;;;2.58;1.10;;;;;;;;;;6186135;26;20346;-64
2024/04/13 10:27:23;;;;;;;2.45;1.08;;;;;;;;;;6229729;26;20004;-64
2024/04/13 10:30:14;;;;;;;14.95;1.52;;;;;;;;;;6250867;26;20328;-65
2024/04/13 10:33:15;;;;;;;1.42;1.13;;;;;;;;;;6227263;26;20033;-65
2024/04/13 10:36:09;;;;;;;1.15;0.70;;;;;;;;;;6247815;26;20472;-65
2024/04/13 10:39:05;;;;;;;0.65;0.52;;;;;;;;;;6244636;26;20012;-65
2024/04/13 10:41:56;;;;;;;2.55;1.15;;;;;;;;;;6248551;26;20004;-65
2024/04/13 10:44:47;;;;;;;4.32;1.63;;;;;;;;;;6233432;26;20447;-65
2024/04/13 10:47:41;;;;;;;1.42;1.15;;;;;;;;;;6228843;26;20032;-65
2024/04/13 10:50:33;;;;;;;1.05;0.93;;;;;;;;;;6228920;26;20415;-65
2024/04/13 10:53:28;;;;;;;4.80;1.52;;;;;;;;;;6198701;26;20820;-65
2024/04/13 10:56:19;;;;;;;2.03;1.00;;;;;;;;;;6233409;26;20082;-65
2024/04/13 10:59:10;;;;;;;9.32;1.10;;;;;;;;;;6263037;26;20017;-65
2024/04/13 11:02:04;;;;;;;2.33;1.48;;;;;;;;;;6250573;26;20328;-65
2024/04/13 11:04:55;;;;;;;1.10;0.80;;;;;;;;;;6230728;26;20471;-64
2024/04/13 11:07:47;;;;;;;4.50;0.85;;;;;;;;;;6232326;26;20018;-65
2024/04/13 11:10:40;;;;;;;4.05;0.50;;;;;;;;;;6270008;26;20334;-65
2024/04/13 11:13:32;;;;;;;1.58;1.10;;;;;;;;;;6270126;26;20036;-65
2024/04/13 11:16:25;;;;;;;4.47;1.20;;;;;;;;;;6270193;26;20031;-65
2024/04/13 11:19:16;;;;;;;3.85;1.10;;;;;;;;;;6269265;26;20004;-65
2024/04/13 11:22:11;;;;;;;3.50;1.42;;;;;;;;;;6269665;26;20004;-65
2024/04/13 11:25:02;;;;;;;1.00;0.93;;;;;;;;;;6831591;21;20012;-75
2024/04/13 11:27:53;;;;;;;1.17;0.75;;;;;;;;;;6269624;26;20012;-74
2024/04/13 11:30:47;;;;;;;2.45;1.23;;;;;;;;;;6269942;26;20004;-74
2024/04/13 11:33:38;;;;;;;5.47;1.38;;;;;;;;;;6211336;26;20004;-75
2024/04/13 11:36:29;;;;;;;14.82;1.20;;;;;;;;;;6269345;26;20004;-74
2024/04/13 11:39:21;;;;;;;3.13;1.42;;;;;;;;;;6269810;26;20452;-74
2024/04/13 11:42:38;;;;;;;1.17;0.90;;;;;;;;;;6269617;26;20014;-74
2024/04/13 13:28:23;;;;;;;1.92;0.43;;;;;;;;;;6262256;26;20024;-75
2024/04/13 13:31:14;;;;;;;2.08;1.13;;;;;;;;;;6230977;26;20040;-74
2024/04/13 13:34:05;;;;;;;2.40;1.38;;;;;;;;;;6226817;26;20033;-73
2024/04/13 13:36:58;;;;;;;7.68;1.33;;;;;;;;;;6255735;26;20009;-72
2024/04/13 13:39:49;;;;;;;1.42;0.93;;;;;;;;;;6249786;26;20041;-72
2024/04/13 13:42:40;;;;;;;4.47;0.60;;;;;;;;;;6226890;26;20591;-73
2024/04/13 13:45:31;;;;;;;2.10;0.63;;;;;;;;;;6217634;26;20004;-74
2024/04/13 13:48:22;;;;;;;2.60;0.63;;;;;;;;;;6267886;26;20448;-75
2024/04/13 13:51:13;;;;;;;2.65;0.90;;;;;;;;;;6230496;26;20017;-75
2024/04/13 13:54:05;;;;;;;2.08;1.05;;;;;;;;;;6226899;26;20005;-74
2024/04/13 13:56:55;;;;;;;0.60;0.60;;;;;;;;;;6265938;26;20023;-73
2024/04/13 14:06:40;;;;;;;3.30;1.47;;;;;;;;;;6078775;22;20212;-74
2024/04/13 14:09:32;;;;;;;0.75;0.57;;;;;;;;;;5971064;27;20233;-74
2024/04/13 14:12:23;;;;;;;11.15;1.00;;;;;;;;;;5998336;27;20027;-73
2024/04/13 14:15:14;;;;;;;1.52;0.68;;;;;;;;;;6028757;27;20024;-74
2024/04/13 14:18:05;;;;;;;1.38;0.45;;;;;;;;;;6025239;27;20515;-74
2024/04/13 14:20:56;;;;;;;1.05;0.93;;;;;;;;;;6014744;27;20560;-74
2024/04/13 14:23:52;;;;;;;1.45;1.00;;;;;;;;;;6014020;27;20511;-74
2024/04/13 14:26:43;;;;;;;1.42;1.13;;;;;;;;;;6014387;27;20375;-74
2024/04/13 14:29:34;;;;;;;0.60;0.60;;;;;;;;;;5987673;27;20025;-74
2024/04/13 14:32:25;;;;;;;0.32;0.30;;;;;;;;;;6014538;27;20023;-73
2024/04/13 14:35:16;;;;;;;1.23;0.63;;;;;;;;;;6016418;27;20009;-74
2024/04/13 14:38:07;;;;;;;0.63;0.40;;;;;;;;;;5988014;27;20020;-73
2024/04/13 14:40:58;;;;;;;0.10;0.10;;;;;;;;;;6014327;27;20019;-74
2024/04/13 14:43:51;;;;;;;1.17;0.63;;;;;;;;;;6003048;27;20504;-74
2024/04/13 14:46:44;;;;;;;2.55;0.93;;;;;;;;;;6034247;27;20016;-73
2024/04/13 14:49:35;;;;;;;0.50;0.47;;;;;;;;;;6034269;27;20027;-74
2024/04/13 14:52:26;;;;;;;2.45;0.95;;;;;;;;;;6032371;27;20012;-74
2024/04/13 14:55:20;;;;;;;4.90;0.70;;;;;;;;;;6039570;27;20012;-74
2024/04/13 14:58:11;;;;;;;1.33;1.02;;;;;;;;;;6031451;27;20346;-74
2024/04/13 15:01:06;;;;;;;0.90;0.60;;;;;;;;;;6033604;27;20052;-73
2024/04/13 15:03:57;;;;;;;1.20;0.77;;;;;;;;;;6033904;27;20536;-73
2024/04/13 15:06:48;;;;;;;1.40;0.85;;;;;;;;;;6038267;27;20035;-74
2024/04/13 15:09:39;;;;;;;3.25;0.80;;;;;;;;;;6041982;27;20402;-74
2024/04/13 15:12:30;;;;;;;1.38;0.95;;;;;;;;;;6032581;27;20102;-73
2024/04/13 15:15:21;;;;;;;1.33;0.90;;;;;;;;;;6042731;27;20015;-74
2024/04/13 15:18:13;;;;;;;0.65;0.52;;;;;;;;;;6029518;27;20366;-74
2024/04/13 15:21:04;;;;;;;1.05;0.73;;;;;;;;;;6022590;27;20336;-73
2024/04/13 15:23:55;;;;;;;41.10;1.50;;;;;;;;;;6031270;27;20015;-73
2024/04/13 15:26:46;;;;;;;1.27;0.75;;;;;;;;;;6033730;27;20008;-73
2024/04/13 15:29:37;;;;;;;6.28;1.35;;;;;;;;;;6031343;27;20008;-73
2024/04/13 15:35:40;;;;;;;1.08;0.68;;;;;;;;;;7099195;22;20013;-74
2024/04/13 15:38:31;;;;;;;0.77;0.50;;;;;;;;;;6018344;27;20051;-74
2024/04/13 15:41:22;;;;;;;1.45;0.80;;;;;;;;;;6068677;27;20007;-73
2024/04/13 15:44:13;;;;;;;3.40;0.85;;;;;;;;;;6071641;27;20017;-74
2024/04/13 15:47:06;;;;;;;0.47;0.40;;;;;;;;;;6071952;27;20007;-72
2024/04/13 15:49:57;;;;;;;4.45;1.27;;;;;;;;;;6060178;27;20020;-73
2024/04/13 15:52:48;;;;;;;1.38;1.20;;;;;;;;;;6046090;27;20448;-73
2024/04/13 15:55:40;;;;;;;0.77;0.77;;;;;;;;;;6069859;27;20008;-74
2024/04/13 15:58:30;;;;;;;0.88;0.80;;;;;;;;;;6072454;27;20039;-73
2024/04/13 16:01:21;;;;;;;2.88;1.48;;;;;;;;;;6070715;27;20024;-73
2024/04/13 16:04:14;;;;;;;1.85;0.80;;;;;;;;;;6071818;27;20008;-73
2024/04/13 16:07:05;;;;;;;10.25;1.38;;;;;;;;;;6033438;27;20030;-73
2024/04/13 16:09:56;;;;;;;0.60;0.60;;;;;;;;;;6055692;27;20419;-74
2024/04/13 16:12:47;;;;;;;3.33;0.77;;;;;;;;;;6064099;27;20015;-74
2024/04/13 16:15:38;;;;;;;0.75;0.55;;;;;;;;;;6029013;27;20355;-74
2024/04/13 16:18:29;;;;;;;0.30;0.30;;;;;;;;;;6023732;27;20023;-74
2024/04/13 16:21:20;;;;;;;2.78;1.15;;;;;;;;;;6052071;27;20019;-74
2024/04/13 16:24:12;;;;;;;1.75;0.85;;;;;;;;;;6052969;27;20923;-73
2024/04/13 16:27:03;;;;;;;3.45;1.27;;;;;;;;;;6022914;27;20039;-74
2024/04/13 16:29:54;;;;;;;4.20;1.08;;;;;;;;;;6044997;27;20461;-74
2024/04/13 16:32:44;;;;;;;3.15;1.00;;;;;;;;;;6036046;27;20023;-74
2024/04/13 16:35:35;;;;;;;4.13;2.17;;;;;;;;;;6032352;27;20019;-74
2024/04/13 16:38:27;;;;;;;3.47;1.00;;;;;;;;;;6033406;27;20023;-74
2024/04/13 16:41:18;;;;;;;0.95;0.85;;;;;;;;;;6032474;27;20459;-73
2024/04/13 16:44:11;;;;;;;4.38;0.98;;;;;;;;;;6032513;27;20004;-74
2024/04/13 16:47:01;;;;;;;1.52;0.65;;;;;;;;;;6032907;27;20019;-73
2024/04/13 16:49:52;;;;;;;0.90;0.90;;;;;;;;;;6021038;27;20016;-73
2024/04/13 16:52:43;;;;;;;1.73;1.50;;;;;;;;;;6065920;27;20132;-74
2024/04/13 16:55:34;;;;;;;2.33;1.08;;;;;;;;;;6050305;27;20443;-73
2024/04/13 16:58:25;;;;;;;1.08;0.90;;;;;;;;;;6052297;27;20015;-73
2024/04/13 17:01:17;;;;;;;2.20;1.25;;;;;;;;;;6049682;27;20019;-73
2024/04/13 17:04:09;;;;;;;1.58;1.10;;;;;;;;;;6045033;27;20119;-72
2024/04/13 17:07:00;;;;;;;3.78;1.60;;;;;;;;;;6033273;27;20024;-73
2024/04/13 17:09:51;;;;;;;1.75;0.90;;;;;;;;;;6032580;27;20005;-73
2024/04/13 17:12:41;;;;;;;0.80;0.60;;;;;;;;;;6032394;27;20351;-73
2024/04/13 17:15:33;;;;;;;0.90;0.77;;;;;;;;;;6031826;27;20040;-73
2024/04/13 17:18:24;;;;;;;1.23;1.00;;;;;;;;;;6032404;27;20023;-73
2024/04/13 17:21:16;;;;;;;1.08;0.90;;;;;;;;;;6031928;27;20009;-73
2024/04/13 17:24:07;;;;;;;11.73;0.80;;;;;;;;;;6031696;27;20080;-73
2024/04/13 17:26:59;;;;;;;4.75;0.85;;;;;;;;;;6032496;27;20024;-73
2024/04/13 17:29:50;;;;;;;3.35;1.85;;;;;;;;;;6031664;27;20044;-74
2024/04/13 17:32:41;;;;;;;8.48;1.30;;;;;;;;;;6031613;27;20044;-74
2024/04/13 17:35:33;;;;;;;16.23;6.07;;;;;;;;;;6030855;27;20440;-73
2024/04/13 17:38:24;;;;;;;11.85;6.50;;;;;;;;;;6048336;27;20036;-74
2024/04/13 17:41:15;;;;;;;18.02;11.10;;;;;;;;;;6048646;27;20044;-73
2024/04/13 17:44:05;;;;;;;19.83;4.60;;;;;;;;;;6069564;27;20018;-73
2024/04/13 17:46:56;;;;;;;11.55;4.55;;;;;;;;;;6042129;27;20040;-74
2024/04/13 17:49:47;;;;;;;17.52;8.80;;;;;;;;;;6050475;27;20467;-74
2024/04/13 17:52:38;;;;;;;5.03;3.83;;;;;;;;;;6049402;27;20426;-73
2024/04/13 17:55:29;;;;;;;13.38;6.75;;;;;;;;;;6045049;27;20017;-73
2024/04/13 17:58:20;;;;;;;27.25;14.77;;;;;;;;;;6051273;27;20008;-74
2024/04/13 18:01:11;;;;;;;15.55;6.78;;;;;;;;;;6054025;27;20015;-73
2024/04/13 18:04:02;;;;;;;18.27;10.40;;;;;;;;;;6051941;27;20036;-73
2024/04/13 18:06:53;;;;;;;12.27;7.03;;;;;;;;;;6050781;27;20024;-74
2024/04/13 18:09:44;;;;;;;3.78;3.13;;;;;;;;;;6045588;27;20062;-73
2024/04/13 18:12:35;;;;;;;23.45;3.70;;;;;;;;;;6058749;27;20008;-73
2024/04/13 18:15:27;;;;;;;7.72;2.40;;;;;;;;;;6060637;27;20016;-73
2024/04/13 18:18:18;;;;;;;4.85;2.72;;;;;;;;;;6030696;27;20365;-73
2024/04/13 18:21:09;;;;;;;3.60;2.42;;;;;;;;;;6027099;27;20023;-73
2024/04/13 18:24:00;;;;;;;6.72;3.10;;;;;;;;;;6005810;27;20009;-73
2024/04/13 18:26:51;;;;;;;19.88;4.05;;;;;;;;;;6060374;27;20807;-73
2024/04/13 18:29:46;;;;;;;7.35;2.67;;;;;;;;;;6072580;27;20365;-73
2024/04/13 18:32:36;;;;;;;5.30;2.80;;;;;;;;;;6072396;27;20027;-74
2024/04/13 18:35:27;;;;;;;6.85;3.92;;;;;;;;;;6062847;27;20027;-73
2024/04/13 18:38:18;;;;;;;7.57;3.00;;;;;;;;;;6051726;27;20023;-73
2024/04/13 18:41:09;;;;;;;6.32;3.65;;;;;;;;;;6033204;27;20009;-73
2024/04/13 18:44:00;;;;;;;11.95;3.97;;;;;;;;;;6034020;27;20008;-69
2024/04/13 18:46:51;;;;;;;13.75;6.70;;;;;;;;;;6033970;27;20016;-73
2024/04/13 18:49:46;;;;;;;8.35;4.97;;;;;;;;;;6034235;27;20019;-73
2024/04/13 18:52:40;;;;;;;8.75;5.68;;;;;;;;;;6034127;27;20016;-73
2024/04/13 18:55:32;;;;;;;10.25;5.32;;;;;;;;;;6029278;27;20008;-73
2024/04/13 18:58:23;;;;;;;12.63;6.05;;;;;;;;;;6028995;27;20023;-73
2024/04/13 19:01:14;;;;;;;10.77;4.97;;;;;;;;;;6033155;27;20040;-73
2024/04/13 19:04:08;;;;;;;7.93;4.90;;;;;;;;;;6023476;27;20007;-73
2024/04/13 19:07:00;;;;;;;4.03;3.00;;;;;;;;;;6052127;27;20482;-73
2024/04/13 19:09:51;;;;;;;9.93;4.63;;;;;;;;;;6023241;27;20343;-73
2024/04/13 19:12:42;;;;;;;10.05;5.85;;;;;;;;;;6052594;27;20514;-73
2024/04/13 19:15:33;;;;;;;7.78;5.57;;;;;;;;;;6053332;27;20136;-73
2024/04/13 19:18:24;;;;;;;15.75;5.68;;;;;;;;;;6053187;27;20028;-73
2024/04/13 19:21:16;;;;;;;13.65;5.03;;;;;;;;;;6037571;27;20023;-73
2024/04/13 19:24:07;;;;;;;9.05;4.47;;;;;;;;;;6042218;27;20059;-73
2024/04/13 19:26:58;;;;;;;7.03;4.38;;;;;;;;;;6047042;27;20398;-73
2024/04/13 19:29:51;;;;;;;8.82;5.32;;;;;;;;;;6050979;27;20087;-73